createdAt,value
2022-12-04T00:02:31.891Z,53.33
2022-12-04T00:05:09.584Z,50.13
2022-12-04T00:07:44.918Z,47.72
2022-12-04T00:10:14.210Z,54.75
2022-12-04T00:12:49.638Z,45.92
2022-12-04T00:15:25.737Z,57.70
2022-12-04T00:17:58.675Z,56.50
2022-12-04T00:23:05.951Z,54.42
2022-12-04T00:25:37.747Z,63.72
2022-12-04T00:28:18.331Z,55.20
2022-12-04T00:30:52.563Z,57.33
2022-12-04T00:33:19.236Z,56.30
2022-12-04T00:44:57.869Z,59.30
2022-12-04T00:47:32.862Z,59.45
2022-12-04T00:50:11.543Z,55.55
2022-12-04T00:52:44.055Z,57.90
2022-12-04T00:55:21.823Z,52.22
2022-12-04T00:58:03.593Z,60.17
2022-12-04T01:00:42.690Z,55.60
2022-12-04T01:03:10.341Z,65.65
2022-12-04T01:06:01.664Z,64.20
2022-12-04T01:08:40.094Z,60.45
2022-12-04T01:11:16.860Z,56.57
2022-12-04T01:13:54.403Z,53.35
2022-12-04T01:16:47.572Z,64.20
2022-12-04T01:19:31.927Z,66.28
2022-12-04T01:22:10.485Z,61.53
2022-12-04T01:24:57.005Z,61.13
2022-12-04T01:27:38.963Z,57.53
2022-12-04T01:30:14.965Z,56.50
2022-12-04T01:32:54.448Z,67.40
2022-12-04T01:35:21.359Z,56.47
2022-12-04T01:38:21.240Z,52.70
2022-12-04T01:41:32.611Z,62.08
2022-12-04T01:44:12.092Z,58.85
2022-12-04T01:46:56.202Z,61.35
2022-12-04T01:49:30.775Z,63.00
2022-12-04T01:55:29.682Z,60.28
2022-12-04T01:58:09.312Z,61.88
2022-12-04T02:00:39.019Z,56.25
2022-12-04T02:09:27.063Z,64.78
2022-12-04T02:12:16.277Z,60.78
2022-12-04T02:15:01.423Z,63.63
2022-12-04T02:17:46.791Z,61.05
2022-12-04T02:24:08.009Z,70.75
2022-12-04T02:27:00.667Z,54.17
2022-12-04T02:30:10.201Z,54.70
2022-12-04T02:33:18.803Z,62.30
2022-12-04T02:36:07.484Z,64.73
2022-12-04T02:39:05.515Z,61.95
2022-12-04T02:41:57.383Z,57.40
2022-12-04T02:44:38.568Z,61.03
2022-12-04T02:47:18.512Z,63.95
2022-12-04T02:50:06.750Z,56.00
2022-12-04T02:52:57.482Z,49.13
2022-12-04T02:55:57.399Z,61.50
2022-12-04T02:58:46.850Z,57.88
2022-12-04T03:01:28.049Z,54.63
2022-12-04T03:04:31.546Z,47.83
2022-12-04T03:07:09.588Z,64.60
2022-12-04T03:09:48.024Z,61.50
2022-12-04T03:18:42.050Z,63.70
2022-12-04T03:21:21.766Z,67.47
2022-12-04T03:23:57.012Z,52.70
2022-12-04T03:26:42.873Z,64.22
2022-12-04T03:29:23.293Z,67.22
2022-12-04T03:41:18.529Z,57.10
2022-12-04T03:47:40.448Z,59.97
2022-12-04T03:50:40.319Z,46.58
2022-12-04T03:53:32.668Z,55.90
2022-12-04T03:56:14.139Z,64.82
2022-12-04T03:58:46.683Z,67.35
2022-12-04T04:01:27.341Z,50.53
2022-12-04T04:04:10.534Z,62.25
2022-12-04T04:06:52.895Z,68.13
2022-12-04T04:09:24.397Z,52.03
2022-12-04T04:12:31.722Z,53.83
2022-12-04T04:15:12.461Z,50.47
2022-12-04T04:17:51.635Z,54.58
2022-12-04T04:20:35.204Z,64.93
2022-12-04T04:23:07.315Z,38.17
2022-12-04T04:25:51.716Z,69.07
2022-12-04T04:28:39.023Z,60.10
2022-12-04T04:31:41.254Z,58.45
2022-12-04T04:34:28.520Z,48.05
2022-12-04T04:37:39.382Z,56.03
2022-12-04T04:40:45.742Z,56.63
2022-12-04T04:43:37.048Z,57.57
2022-12-04T04:49:26.005Z,58.00
2022-12-04T04:51:56.736Z,48.47
2022-12-04T04:54:28.439Z,59.55
2022-12-04T04:57:13.750Z,52.10
2022-12-04T04:59:49.438Z,55.30
2022-12-04T05:02:16.288Z,66.28
2022-12-04T05:11:42.613Z,55.27
2022-12-04T05:14:59.843Z,59.60
2022-12-04T05:17:29.870Z,52.30
2022-12-04T05:22:50.519Z,53.85
2022-12-04T05:25:58.201Z,60.07
2022-12-04T05:29:11.935Z,57.05
2022-12-04T05:31:56.891Z,63.30
2022-12-04T05:34:45.127Z,61.50
2022-12-04T05:37:17.371Z,52.20
2022-12-04T05:39:56.283Z,50.97
2022-12-04T05:42:37.783Z,72.53
2022-12-04T05:45:26.998Z,63.28
2022-12-04T05:48:01.112Z,55.05
2022-12-04T05:50:27.885Z,61.28
2022-12-04T05:53:09.233Z,66.37
2022-12-04T05:55:41.749Z,68.78
2022-12-04T05:58:18.862Z,58.10
2022-12-04T06:04:27.644Z,64.53
2022-12-04T06:06:54.795Z,52.83
2022-12-04T06:09:42.618Z,61.95
2022-12-04T06:12:14.787Z,66.20
2022-12-04T06:14:59.550Z,64.93
2022-12-04T06:17:26.362Z,69.72
2022-12-04T06:20:29.630Z,60.90
2022-12-04T06:22:56.659Z,57.65
2022-12-04T06:25:39.789Z,67.28
2022-12-04T06:28:23.545Z,59.10
2022-12-04T06:36:15.604Z,54.53
2022-12-04T06:38:42.799Z,63.90
2022-12-04T06:41:26.225Z,63.10
2022-12-04T06:44:16.136Z,60.90
2022-12-04T06:46:56.138Z,61.60
2022-12-04T06:49:38.152Z,55.33
2022-12-04T06:52:04.861Z,62.13
2022-12-04T06:54:46.997Z,62.35
2022-12-04T06:57:27.443Z,67.15
2022-12-04T07:00:16.120Z,60.60
2022-12-04T07:02:53.410Z,59.63
2022-12-04T07:05:20.265Z,54.08
2022-12-04T07:07:58.907Z,56.88
2022-12-04T07:10:36.003Z,62.08
2022-12-04T07:13:47.750Z,54.97
2022-12-04T07:16:25.456Z,50.95
2022-12-04T07:19:03.635Z,59.55
2022-12-04T07:22:20.058Z,64.13
2022-12-04T07:24:52.738Z,29.27
2022-12-04T07:27:30.829Z,48.53
2022-12-04T07:30:09.981Z,49.58
2022-12-04T07:32:44.042Z,54.33
2022-12-04T07:35:10.869Z,56.38
2022-12-04T07:37:39.762Z,51.80
2022-12-04T07:40:24.795Z,51.50
2022-12-04T07:42:51.472Z,50.67
2022-12-04T07:45:19.224Z,50.80
2022-12-04T07:59:56.692Z,57.72
2022-12-04T08:05:19.771Z,57.05
2022-12-04T08:07:49.649Z,62.13
2022-12-04T08:10:34.090Z,64.13
2022-12-04T08:13:06.990Z,63.45
2022-12-04T08:15:37.259Z,48.08
2022-12-04T08:18:22.511Z,58.75
2022-12-04T08:21:15.508Z,45.60
2022-12-04T08:24:14.354Z,52.90
2022-12-04T08:26:44.264Z,55.28
2022-12-04T08:29:20.235Z,51.28
2022-12-04T08:32:34.599Z,63.80
2022-12-04T08:35:03.864Z,58.57
2022-12-04T08:37:40.794Z,57.97
2022-12-04T08:42:48.636Z,55.70
2022-12-04T08:45:21.478Z,54.83
2022-12-04T08:47:52.712Z,60.23
2022-12-04T08:50:36.759Z,61.63
2022-12-04T08:53:16.620Z,56.28
2022-12-04T08:55:47.939Z,52.90
2022-12-04T09:01:44.782Z,52.73
2022-12-04T09:04:11.551Z,59.05
2022-12-04T09:06:38.145Z,53.92
2022-12-04T09:09:04.798Z,48.78
2022-12-04T09:11:31.540Z,58.10
2022-12-04T09:13:58.460Z,65.83
2022-12-04T09:16:25.903Z,65.70
2022-12-04T09:18:52.981Z,59.72
2022-12-04T09:21:21.770Z,56.80
2022-12-04T09:23:48.728Z,57.85
2022-12-04T09:26:21.733Z,62.27
2022-12-04T09:28:49.214Z,58.33
2022-12-04T09:31:16.618Z,60.63
2022-12-04T09:33:43.419Z,51.13
2022-12-04T09:36:10.129Z,58.83
2022-12-04T09:38:36.760Z,52.07
2022-12-04T09:41:30.544Z,55.60
2022-12-04T09:44:03.290Z,57.40
2022-12-04T09:46:37.332Z,59.63
2022-12-04T09:49:19.556Z,39.00
2022-12-04T09:51:47.483Z,47.80
2022-12-04T09:54:20.889Z,50.17
2022-12-04T09:57:03.039Z,50.63
2022-12-04T09:59:32.001Z,50.45
2022-12-04T10:02:37.227Z,56.25
2022-12-04T10:05:05.934Z,50.40
2022-12-04T10:07:42.517Z,43.72
2022-12-04T10:10:39.197Z,47.28
2022-12-04T10:13:43.217Z,50.90
2022-12-04T10:16:34.581Z,52.75
2022-12-04T10:19:14.088Z,55.43
2022-12-04T10:21:59.720Z,40.22
2022-12-04T10:24:41.725Z,40.83
2022-12-04T10:27:17.656Z,44.55
2022-12-04T10:29:52.694Z,38.00
2022-12-04T10:32:26.956Z,45.07
2022-12-04T10:34:57.045Z,41.80
2022-12-04T10:37:24.255Z,50.88
2022-12-04T10:39:57.255Z,46.65
2022-12-04T10:42:37.451Z,45.35
2022-12-04T10:45:06.254Z,36.57
2022-12-04T10:47:34.795Z,48.72
2022-12-04T10:50:05.317Z,50.83
2022-12-04T10:52:31.973Z,40.00
2022-12-04T10:55:00.276Z,53.35
2022-12-04T10:57:39.200Z,43.90
2022-12-04T11:00:28.400Z,43.58
2022-12-04T11:02:58.283Z,42.28
2022-12-04T11:05:45.415Z,47.25
2022-12-04T11:11:16.505Z,42.87
2022-12-04T11:13:43.322Z,36.40
2022-12-04T11:16:32.981Z,35.85
2022-12-04T11:19:18.776Z,25.35
2022-12-04T11:21:46.020Z,42.78
2022-12-04T11:24:36.844Z,47.67
2022-12-04T11:27:38.871Z,37.78
2022-12-04T11:30:18.772Z,40.90
2022-12-04T11:32:47.179Z,35.30
2022-12-04T11:35:26.045Z,35.20
2022-12-04T11:38:17.520Z,34.30
2022-12-04T11:41:03.644Z,28.65
2022-12-04T11:43:31.314Z,32.83
2022-12-04T11:46:05.876Z,32.33
2022-12-04T11:48:45.597Z,34.70
2022-12-04T11:51:43.646Z,31.93
2022-12-04T11:54:44.243Z,34.08
2022-12-04T11:57:20.067Z,20.17
2022-12-04T11:59:49.993Z,28.05
2022-12-04T12:02:54.595Z,26.77
2022-12-04T12:06:01.733Z,25.93
2022-12-04T12:09:08.209Z,28.20
2022-12-04T12:11:42.502Z,29.83
2022-12-04T12:14:21.139Z,37.03
2022-12-04T12:17:06.874Z,23.27
2022-12-04T12:20:01.113Z,25.93
2022-12-04T12:22:42.550Z,32.97
2022-12-04T12:25:33.252Z,33.92
2022-12-04T12:28:21.663Z,23.13
2022-12-04T12:34:22.713Z,29.33
2022-12-04T12:36:56.431Z,28.77
2022-12-04T12:42:28.388Z,28.98
2022-12-04T12:47:49.366Z,29.10
2022-12-04T12:50:36.549Z,29.75
2022-12-04T12:53:13.502Z,30.90
2022-12-04T12:55:58.392Z,20.27
2022-12-04T12:58:54.530Z,25.50
2022-12-04T13:01:21.382Z,29.40
2022-12-04T13:04:36.517Z,20.00
2022-12-04T13:07:33.949Z,23.42
2022-12-04T13:10:44.748Z,27.30
2022-12-04T13:13:32.807Z,29.85
2022-12-04T13:16:03.719Z,24.10
2022-12-04T13:18:40.498Z,24.58
2022-12-04T13:21:08.538Z,20.95
2022-12-04T13:23:41.505Z,25.73
2022-12-04T13:26:43.616Z,25.50
2022-12-04T13:29:45.109Z,25.20
2022-12-04T13:32:29.510Z,25.02
2022-12-04T13:35:15.007Z,26.75
2022-12-04T13:38:07.306Z,27.25
2022-12-04T13:40:39.217Z,18.70
2022-12-04T13:43:25.574Z,25.67
2022-12-04T13:45:54.593Z,27.25
2022-12-04T13:48:51.647Z,28.30
2022-12-04T13:51:40.631Z,24.10
2022-12-04T13:54:16.148Z,23.38
2022-12-04T13:57:07.674Z,15.10
2022-12-04T13:59:37.740Z,23.13
2022-12-04T14:02:22.600Z,23.55
2022-12-04T14:04:53.786Z,27.63
2022-12-04T14:07:35.657Z,23.55
2022-12-04T14:10:30.413Z,26.67
2022-12-04T14:13:14.710Z,22.25
2022-12-04T14:15:41.355Z,27.98
2022-12-04T14:18:13.820Z,27.23
2022-12-04T14:20:42.962Z,30.00
2022-12-04T14:23:15.467Z,30.30
2022-12-04T14:25:42.682Z,21.73
2022-12-04T14:28:29.236Z,23.80
2022-12-04T14:31:07.934Z,23.98
2022-12-04T14:34:18.177Z,21.15
2022-12-04T14:36:47.511Z,30.60
2022-12-04T14:39:36.791Z,24.95
2022-12-04T14:46:06.634Z,18.42
2022-12-04T14:48:36.464Z,26.13
2022-12-04T14:51:23.081Z,27.27
2022-12-04T14:53:59.198Z,26.90
2022-12-04T14:56:55.160Z,33.95
2022-12-04T14:59:26.244Z,30.65
2022-12-04T15:01:55.480Z,23.65
2022-12-04T15:04:32.725Z,18.20
2022-12-04T15:07:00.718Z,23.00
2022-12-04T15:09:28.595Z,25.80
2022-12-04T15:11:58.452Z,30.33
2022-12-04T15:14:25.406Z,29.10
2022-12-04T15:17:03.068Z,20.50
2022-12-04T15:19:29.702Z,29.60
2022-12-04T15:25:27.801Z,34.53
2022-12-04T15:28:05.784Z,31.60
2022-12-04T15:30:36.106Z,35.70
2022-12-04T15:33:03.824Z,32.25
2022-12-04T15:35:35.193Z,34.85
2022-12-04T15:38:02.251Z,26.08
2022-12-04T15:40:30.349Z,35.75
2022-12-04T15:43:16.628Z,34.17
2022-12-04T15:45:45.747Z,35.13
2022-12-04T15:48:25.804Z,38.67
2022-12-04T15:51:02.473Z,41.45
2022-12-04T15:53:33.537Z,40.22
2022-12-04T15:56:06.529Z,38.47
2022-12-04T15:58:44.023Z,45.20
2022-12-04T16:01:13.186Z,42.50
2022-12-04T16:06:46.244Z,49.88
2022-12-04T16:12:33.367Z,42.78
2022-12-04T16:15:04.428Z,45.20
2022-12-04T16:17:32.714Z,37.22
2022-12-04T16:20:00.575Z,44.50
2022-12-04T16:22:27.640Z,46.47
2022-12-04T16:24:57.869Z,47.88
2022-12-04T16:27:37.932Z,45.75
2022-12-04T16:32:50.281Z,45.63
2022-12-04T16:35:17.615Z,38.33
2022-12-04T16:37:44.551Z,40.03
2022-12-04T16:40:17.218Z,49.22
2022-12-04T17:07:50.577Z,38.05
2022-12-04T17:13:40.258Z,43.72
2022-12-04T17:16:07.458Z,46.00
2022-12-04T17:18:37.211Z,45.55
2022-12-04T17:23:39.891Z,51.03
2022-12-04T17:29:09.430Z,39.33
2022-12-04T17:31:36.101Z,46.35
2022-12-04T17:34:16.341Z,39.97
2022-12-04T17:42:36.326Z,41.20
2022-12-04T17:45:03.825Z,38.13
2022-12-04T17:47:30.741Z,43.00
2022-12-04T17:50:00.813Z,42.63
2022-12-04T17:52:30.511Z,40.30
2022-12-04T17:54:57.362Z,35.17
2022-12-04T17:57:24.283Z,43.42
2022-12-04T17:59:52.265Z,31.85
2022-12-04T18:02:18.950Z,31.92
2022-12-04T18:04:49.863Z,37.97
2022-12-04T18:07:17.973Z,40.83
2022-12-04T18:09:45.970Z,38.42
2022-12-04T18:12:12.771Z,43.13
2022-12-04T18:14:40.662Z,39.78
2022-12-04T18:19:48.638Z,42.30
2022-12-04T18:22:49.509Z,39.72
2022-12-04T18:25:16.166Z,43.58
2022-12-04T18:27:44.199Z,31.67
2022-12-04T18:30:19.173Z,34.28
2022-12-04T18:36:05.869Z,33.65
2022-12-04T18:39:09.867Z,37.85
2022-12-04T18:41:36.994Z,37.05
2022-12-04T18:44:03.945Z,31.80
2022-12-04T18:46:30.794Z,38.90
2022-12-04T18:49:07.675Z,39.03
2022-12-04T18:51:42.285Z,33.10
2022-12-04T18:56:58.216Z,34.38
2022-12-04T18:59:31.995Z,38.27
2022-12-04T19:01:58.912Z,36.33
2022-12-04T19:04:27.876Z,34.75
2022-12-04T19:06:56.805Z,40.28
2022-12-04T19:12:11.867Z,39.63
2022-12-04T19:14:38.742Z,32.33
2022-12-04T19:17:05.791Z,34.47
2022-12-04T19:19:33.359Z,42.90
2022-12-04T19:25:42.263Z,33.47
2022-12-04T19:28:33.164Z,32.78
2022-12-04T19:33:35.416Z,42.15
2022-12-04T19:36:18.817Z,41.75
2022-12-04T19:38:45.576Z,40.20
2022-12-04T19:41:17.357Z,36.60
2022-12-04T19:43:49.014Z,42.85
2022-12-04T19:46:20.251Z,40.97
2022-12-04T19:48:47.111Z,39.22
2022-12-04T19:51:16.468Z,45.03
2022-12-04T19:53:48.475Z,43.67
2022-12-04T19:56:22.399Z,47.90
2022-12-04T19:58:51.089Z,43.90
2022-12-04T20:01:24.388Z,46.08
2022-12-04T20:03:51.261Z,52.93
2022-12-04T20:06:21.176Z,45.22
2022-12-04T20:08:52.856Z,53.50
2022-12-04T20:11:19.920Z,41.72
2022-12-04T20:13:48.115Z,52.97
2022-12-04T20:16:17.608Z,53.40
2022-12-04T20:18:48.724Z,47.50
2022-12-04T20:21:17.027Z,52.08
2022-12-04T20:23:54.601Z,58.95
2022-12-04T20:26:28.226Z,30.02
2022-12-04T20:29:02.372Z,37.97
2022-12-04T20:31:33.099Z,57.20
2022-12-04T20:34:02.939Z,51.17
2022-12-04T20:36:31.940Z,56.00
2022-12-04T20:38:59.361Z,51.80
2022-12-04T20:41:27.989Z,51.80
2022-12-04T20:43:55.352Z,50.65
2022-12-04T20:46:26.708Z,51.60
2022-12-04T20:48:54.016Z,54.90
2022-12-04T20:51:27.683Z,49.10
2022-12-04T20:56:34.743Z,47.03
2022-12-04T20:59:04.794Z,51.85
2022-12-04T21:02:05.066Z,49.28
2022-12-04T21:04:41.348Z,48.20
2022-12-04T21:07:08.282Z,50.53
2022-12-04T21:09:45.875Z,46.40
2022-12-04T21:12:12.802Z,52.53
2022-12-04T21:14:39.528Z,45.70
2022-12-04T21:19:53.688Z,47.27
2022-12-04T21:22:20.882Z,55.10
2022-12-04T21:24:47.667Z,50.38
2022-12-04T21:27:21.020Z,51.30
2022-12-04T21:29:51.579Z,51.00
2022-12-04T21:32:19.742Z,50.03
2022-12-04T21:34:46.580Z,50.75
2022-12-04T21:37:14.243Z,56.08
2022-12-04T21:39:42.600Z,47.83
2022-12-04T21:42:09.598Z,42.15
2022-12-04T21:44:36.618Z,52.47
2022-12-04T21:47:03.526Z,47.50
2022-12-04T21:49:30.306Z,50.08
2022-12-04T21:51:58.686Z,49.97
2022-12-04T21:54:27.575Z,49.75
2022-12-04T21:56:55.079Z,61.17
2022-12-04T21:59:50.319Z,53.72
2022-12-04T22:02:17.727Z,51.00
2022-12-04T22:04:44.671Z,52.03
2022-12-04T23:03:49.246Z,53.70
2022-12-04T23:09:46.438Z,50.80
2022-12-04T23:12:19.469Z,51.22
2022-12-04T23:15:00.102Z,54.58
2022-12-04T23:18:14.915Z,48.28
2022-12-04T23:51:17.883Z,44.63
